Time;durP1;ratioP1;P1;durP2;ratioP2;P2;SDS_P1;SDS_P2;PMS_P1;PMS_P2;Temp;Humidity;BMP_temperature;BMP_pressure;BME280_temperature;BME280_humidity;BME280_pressure;Samples;Min_cycle;Max_cycle;Signal;HPM_P1;HPM_P2
2022/05/29 00:00:57;;;;;;;;;;;11.00;99.90;;;;;;5090956;28;19936;-67
2022/05/29 00:03:23;;;;;;;;;;;11.00;99.90;;;;;;5091199;28;19920;-66
2022/05/29 00:05:49;;;;;;;;;;;11.00;99.90;;;;;;5091019;28;19915;-67
2022/05/29 00:08:19;;;;;;;;;;;10.90;99.90;;;;;;5091087;28;19916;-67
2022/05/29 00:10:44;;;;;;;;;;;11.00;99.90;;;;;;5091143;28;19916;-67
2022/05/29 00:13:13;;;;;;;;;;;11.00;99.90;;;;;;5091000;28;19947;-67
2022/05/29 00:15:39;;;;;;;;;;;11.00;99.90;;;;;;5091168;28;19920;-67
2022/05/29 00:18:06;;;;;;;;;;;11.00;99.90;;;;;;5091038;28;20455;-67
2022/05/29 00:20:32;;;;;;;;;;;11.00;99.90;;;;;;5090630;28;20380;-69
2022/05/29 00:22:58;;;;;;;;;;;11.10;99.90;;;;;;5089731;28;19923;-69
2022/05/29 00:25:23;;;;;;;;;;;11.10;99.90;;;;;;5091158;28;20003;-69
2022/05/29 00:27:49;;;;;;;;;;;11.00;99.90;;;;;;5090970;28;20007;-69
2022/05/29 00:30:14;;;;;;;;;;;11.00;99.90;;;;;;5090696;28;19916;-69
2022/05/29 00:32:40;;;;;;;;;;;11.00;99.90;;;;;;5090947;28;20428;-69
2022/05/29 00:35:05;;;;;;;;;;;11.00;99.90;;;;;;5092656;28;19916;-69
2022/05/29 00:37:34;;;;;;;;;;;10.90;99.90;;;;;;5094873;28;19920;-69
2022/05/29 00:40:00;;;;;;;;;;;10.90;99.90;;;;;;5094587;28;19920;-69
2022/05/29 00:42:25;;;;;;;;;;;10.90;99.90;;;;;;5094667;28;20011;-69
2022/05/29 00:44:50;;;;;;;;;;;10.90;99.90;;;;;;5094627;28;19920;-66
2022/05/29 00:47:18;;;;;;;;;;;11.00;99.90;;;;;;5094597;28;19920;-66
2022/05/29 00:49:44;;;;;;;;;;;10.90;99.90;;;;;;5094258;28;19977;-67
2022/05/29 00:52:19;;;;;;;;;;;11.00;99.90;;;;;;5094749;28;19969;-66
2022/05/29 00:54:44;;;;;;;;;;;11.00;99.90;;;;;;5094571;28;19977;-66
2022/05/29 00:57:12;;;;;;;;;;;10.90;99.90;;;;;;5094462;28;19916;-67
2022/05/29 00:59:37;;;;;;;;;;;10.90;99.90;;;;;;5093984;28;20009;-66
2022/05/29 01:02:03;;;;;;;;;;;11.00;99.90;;;;;;5094153;28;19924;-67
2022/05/29 01:04:30;;;;;;;;;;;10.90;99.90;;;;;;5094455;28;20609;-66
2022/05/29 01:06:56;;;;;;;;;;;10.90;99.90;;;;;;5094355;28;19969;-66
2022/05/29 01:09:21;;;;;;;;;;;10.90;99.90;;;;;;5093992;28;20284;-67
2022/05/29 01:11:59;;;;;;;;;;;10.90;99.90;;;;;;5094110;28;20030;-67
2022/05/29 01:14:33;;;;;;;;;;;10.90;99.90;;;;;;5094175;28;19916;-67
2022/05/29 01:17:07;;;;;;;;;;;10.80;99.90;;;;;;5094361;28;19916;-67
2022/05/29 01:19:39;;;;;;;;;;;10.90;99.90;;;;;;5093799;28;19923;-67
2022/05/29 01:22:20;;;;;;;;;;;10.80;99.90;;;;;;5093900;28;19916;-67
2022/05/29 01:25:04;;;;;;;;;;;10.70;99.90;;;;;;5093996;28;19955;-67
2022/05/29 01:27:32;;;;;;;;;;;10.80;99.90;;;;;;5093707;28;20396;-66
2022/05/29 01:30:16;;;;;;;;;;;10.70;99.90;;;;;;5093397;28;20433;-67
2022/05/29 01:32:45;;;;;;;;;;;10.70;99.90;;;;;;5093779;28;19920;-67
2022/05/29 01:35:13;;;;;;;;;;;10.70;99.90;;;;;;5093644;28;19916;-67
2022/05/29 01:37:41;;;;;;;;;;;10.60;99.90;;;;;;5093912;28;19994;-66
2022/05/29 01:40:17;;;;;;;;;;;10.60;99.90;;;;;;5093343;28;19924;-67
2022/05/29 01:42:49;;;;;;;;;;;10.60;99.90;;;;;;5093494;28;20436;-67
2022/05/29 01:45:17;;;;;;;;;;;10.60;99.90;;;;;;5093335;28;20369;-67
2022/05/29 01:47:45;;;;;;;;;;;10.70;99.90;;;;;;5093600;28;20326;-67
2022/05/29 01:50:16;;;;;;;;;;;10.70;99.90;;;;;;5093288;28;20269;-67
2022/05/29 01:52:45;;;;;;;;;;;10.70;99.90;;;;;;5093430;28;19920;-67
2022/05/29 01:55:18;;;;;;;;;;;10.70;99.90;;;;;;5093421;28;19926;-67
2022/05/29 01:57:46;;;;;;;;;;;10.60;99.90;;;;;;5093399;28;19916;-67
2022/05/29 02:00:13;;;;;;;;;;;10.60;99.90;;;;;;5092630;28;19924;-67
2022/05/29 02:02:44;;;;;;;;;;;10.60;99.90;;;;;;5093117;28;19923;-67
2022/05/29 02:05:15;;;;;;;;;;;10.60;99.90;;;;;;5093235;28;20261;-67
2022/05/29 02:07:48;;;;;;;;;;;10.60;99.90;;;;;;5093150;28;19920;-67
2022/05/29 02:10:14;;;;;;;;;;;10.60;99.90;;;;;;5092705;28;19927;-67
2022/05/29 02:12:41;;;;;;;;;;;10.60;99.90;;;;;;5092940;28;19916;-66
2022/05/29 02:15:09;;;;;;;;;;;10.60;99.90;;;;;;5093205;28;19931;-67
2022/05/29 02:17:39;;;;;;;;;;;10.60;99.90;;;;;;5093087;28;19916;-67
2022/05/29 02:20:15;;;;;;;;;;;10.70;99.90;;;;;;5091110;28;19927;-67
2022/05/29 02:22:42;;;;;;;;;;;10.60;99.90;;;;;;5092797;28;19980;-67
2022/05/29 02:25:12;;;;;;;;;;;10.60;99.90;;;;;;5092716;28;19963;-66
2022/05/29 02:27:46;;;;;;;;;;;10.60;99.90;;;;;;5091380;28;20016;-67
2022/05/29 02:30:12;;;;;;;;;;;10.60;99.90;;;;;;5092482;28;19920;-66
2022/05/29 02:32:51;;;;;;;;;;;10.60;99.90;;;;;;5092716;28;19934;-67
2022/05/29 02:35:24;;;;;;;;;;;10.60;99.90;;;;;;5092672;28;19926;-67
2022/05/29 02:38:00;;;;;;;;;;;10.60;99.90;;;;;;5092411;28;19923;-67
2022/05/29 02:40:31;;;;;;;;;;;10.60;99.90;;;;;;5092215;28;19977;-66
2022/05/29 02:43:00;;;;;;;;;;;10.60;99.90;;;;;;5092609;28;19920;-67
2022/05/29 02:45:32;;;;;;;;;;;10.60;99.90;;;;;;5092472;28;20329;-66
2022/05/29 02:48:01;;;;;;;;;;;10.60;99.90;;;;;;5092346;28;19920;-67
2022/05/29 02:50:41;;;;;;;;;;;10.60;99.90;;;;;;5091830;28;19932;-67
2022/05/29 02:53:08;;;;;;;;;;;10.60;99.90;;;;;;5092378;28;19927;-67
2022/05/29 02:55:34;;;;;;;;;;;10.60;99.90;;;;;;5092264;28;19923;-66
2022/05/29 02:58:01;;;;;;;;;;;10.50;99.90;;;;;;5091636;28;19916;-66
2022/05/29 03:00:29;;;;;;;;;;;10.50;99.90;;;;;;5091559;28;20430;-67
2022/05/29 03:03:13;;;;;;;;;;;10.50;99.90;;;;;;5091892;28;19916;-66
2022/05/29 03:05:48;;;;;;;;;;;10.50;99.90;;;;;;5092144;28;19920;-66
2022/05/29 03:08:29;;;;;;;;;;;10.50;99.90;;;;;;5092172;28;20306;-66
2022/05/29 03:10:58;;;;;;;;;;;10.50;99.90;;;;;;5091853;28;19915;-67
2022/05/29 03:13:29;;;;;;;;;;;10.50;99.90;;;;;;5091800;28;20441;-66
2022/05/29 03:15:58;;;;;;;;;;;10.50;99.90;;;;;;5092041;28;19915;-66
2022/05/29 03:18:29;;;;;;;;;;;10.60;99.90;;;;;;5091646;28;19976;-67
2022/05/29 03:20:58;;;;;;;;;;;10.50;99.90;;;;;;5091495;28;19920;-67
2022/05/29 03:23:41;;;;;;;;;;;10.50;99.90;;;;;;5089669;28;19977;-67
2022/05/29 03:26:11;;;;;;;;;;;10.50;99.90;;;;;;5088601;28;20394;-67
2022/05/29 03:28:40;;;;;;;;;;;10.50;99.90;;;;;;5089067;28;19919;-67
2022/05/29 03:31:09;;;;;;;;;;;10.40;99.90;;;;;;5090306;28;19938;-66
2022/05/29 03:33:37;;;;;;;;;;;10.30;99.90;;;;;;5091642;28;19916;-67
2022/05/29 03:36:04;;;;;;;;;;;10.30;99.90;;;;;;5090907;28;19916;-67
2022/05/29 03:38:30;;;;;;;;;;;10.30;99.90;;;;;;5090886;28;20291;-67
2022/05/29 03:40:56;;;;;;;;;;;10.30;99.90;;;;;;5090427;28;19921;-67
2022/05/29 03:43:21;;;;;;;;;;;10.30;99.90;;;;;;5090485;28;20322;-67
2022/05/29 03:45:47;;;;;;;;;;;10.20;99.90;;;;;;5091554;28;20308;-67
2022/05/29 03:48:12;;;;;;;;;;;10.30;99.90;;;;;;5091376;28;19995;-66
2022/05/29 03:50:38;;;;;;;;;;;10.30;99.90;;;;;;5090964;28;20448;-67
2022/05/29 03:53:04;;;;;;;;;;;10.30;99.90;;;;;;5091159;28;19923;-66
2022/05/29 03:55:30;;;;;;;;;;;10.30;99.90;;;;;;5091513;28;19967;-66
2022/05/29 03:57:55;;;;;;;;;;;10.30;99.90;;;;;;5091362;28;20295;-67
2022/05/29 04:00:22;;;;;;;;;;;10.30;99.90;;;;;;5090764;28;19924;-67
2022/05/29 04:02:48;;;;;;;;;;;10.30;99.90;;;;;;5091259;28;19941;-67
2022/05/29 04:05:15;;;;;;;;;;;10.20;99.90;;;;;;5091165;28;19916;-66
2022/05/29 04:13:10;;;;;;;;;;;10.20;99.90;;;;;;5095265;28;20443;-66
2022/05/29 04:15:37;;;;;;;;;;;10.20;99.90;;;;;;5095267;28;19977;-67
2022/05/29 04:18:03;;;;;;;;;;;10.20;99.90;;;;;;5076853;28;19919;-67
2022/05/29 04:20:29;;;;;;;;;;;10.30;99.90;;;;;;5094962;28;19965;-68
2022/05/29 04:22:54;;;;;;;;;;;10.30;99.90;;;;;;5094933;28;19915;-67
2022/05/29 04:25:20;;;;;;;;;;;10.40;99.90;;;;;;5095157;28;19923;-67
2022/05/29 04:27:45;;;;;;;;;;;10.40;99.90;;;;;;5095008;28;19916;-68
2022/05/29 04:30:12;;;;;;;;;;;10.40;99.90;;;;;;5094617;28;20014;-68
2022/05/29 04:35:21;;;;;;;;;;;10.40;99.90;;;;;;5095011;28;19920;-67
2022/05/29 04:37:49;;;;;;;;;;;10.50;99.90;;;;;;5094991;28;19920;-67
2022/05/29 04:40:14;;;;;;;;;;;10.50;99.90;;;;;;5094395;28;19920;-67
2022/05/29 04:42:40;;;;;;;;;;;10.50;99.90;;;;;;5094814;28;19922;-68
2022/05/29 04:45:05;;;;;;;;;;;10.50;99.90;;;;;;5094964;28;19927;-67
2022/05/29 04:47:31;;;;;;;;;;;10.60;99.90;;;;;;5094920;28;19923;-68
2022/05/29 04:49:56;;;;;;;;;;;10.60;99.90;;;;;;5094427;28;20300;-67
2022/05/29 04:52:22;;;;;;;;;;;10.70;99.90;;;;;;5094551;28;19922;-67
2022/05/29 04:54:47;;;;;;;;;;;10.70;99.90;;;;;;5094563;28;19924;-67
2022/05/29 04:57:13;;;;;;;;;;;10.70;99.90;;;;;;5094458;28;19930;-68
2022/05/29 04:59:38;;;;;;;;;;;10.70;99.90;;;;;;5093867;28;19924;-67
2022/05/29 05:02:04;;;;;;;;;;;10.70;99.90;;;;;;5094464;28;19938;-67
2022/05/29 05:04:29;;;;;;;;;;;10.70;99.90;;;;;;5094445;28;20010;-68
2022/05/29 05:06:58;;;;;;;;;;;10.80;99.90;;;;;;5094431;28;19970;-68
2022/05/29 05:09:24;;;;;;;;;;;10.70;99.90;;;;;;5094090;28;19916;-67
2022/05/29 05:11:50;;;;;;;;;;;10.70;99.90;;;;;;5094168;28;19969;-67
2022/05/29 05:14:15;;;;;;;;;;;10.70;99.90;;;;;;5094035;28;20372;-67
2022/05/29 05:16:41;;;;;;;;;;;10.70;99.90;;;;;;5094269;28;19920;-67
2022/05/29 05:19:06;;;;;;;;;;;10.70;99.90;;;;;;5093856;28;19924;-68
2022/05/29 05:21:32;;;;;;;;;;;10.70;99.90;;;;;;5093566;28;20348;-68
2022/05/29 05:23:57;;;;;;;;;;;10.80;99.90;;;;;;5094058;28;19974;-68
2022/05/29 05:26:23;;;;;;;;;;;10.80;99.90;;;;;;5093945;28;19923;-67
2022/05/29 05:28:48;;;;;;;;;;;10.90;99.90;;;;;;5092229;28;20372;-67
2022/05/29 05:31:14;;;;;;;;;;;10.90;99.90;;;;;;5094073;28;19916;-68
2022/05/29 05:33:39;;;;;;;;;;;10.90;99.90;;;;;;5094018;28;20401;-67
2022/05/29 05:36:05;;;;;;;;;;;10.90;99.90;;;;;;5093661;28;19923;-67
2022/05/29 05:38:31;;;;;;;;;;;10.90;99.90;;;;;;5093496;28;19984;-68
2022/05/29 05:40:57;;;;;;;;;;;10.90;99.90;;;;;;5093466;28;20237;-67
2022/05/29 05:43:22;;;;;;;;;;;10.90;99.90;;;;;;5093818;28;19916;-67
2022/05/29 05:45:48;;;;;;;;;;;10.80;99.90;;;;;;5093499;28;19916;-67
2022/05/29 05:48:15;;;;;;;;;;;10.80;99.90;;;;;;5093654;28;19916;-68
2022/05/29 05:50:40;;;;;;;;;;;10.80;99.90;;;;;;5093263;28;20361;-67
2022/05/29 05:53:06;;;;;;;;;;;10.90;99.90;;;;;;5093520;28;19967;-67
2022/05/29 05:55:31;;;;;;;;;;;10.80;99.90;;;;;;5093582;28;19920;-67
2022/05/29 05:57:57;;;;;;;;;;;10.80;99.90;;;;;;5093234;28;19942;-67
2022/05/29 06:00:23;;;;;;;;;;;10.70;99.90;;;;;;5092750;28;20392;-67
2022/05/29 06:02:48;;;;;;;;;;;10.80;99.90;;;;;;5093411;28;19915;-67
2022/05/29 06:05:14;;;;;;;;;;;10.80;99.90;;;;;;5092971;28;19923;-68
2022/05/29 06:07:40;;;;;;;;;;;10.90;99.90;;;;;;5093189;28;19915;-68
2022/05/29 06:10:06;;;;;;;;;;;11.00;99.90;;;;;;5092766;28;19969;-67
2022/05/29 06:12:31;;;;;;;;;;;11.00;99.90;;;;;;5093203;28;19920;-67
2022/05/29 06:14:58;;;;;;;;;;;11.00;99.90;;;;;;5093104;28;19920;-67
2022/05/29 06:17:23;;;;;;;;;;;11.00;99.90;;;;;;5093063;28;19923;-67
2022/05/29 06:19:48;;;;;;;;;;;11.10;99.90;;;;;;5092605;28;19920;-68
2022/05/29 06:22:14;;;;;;;;;;;11.10;99.90;;;;;;5092791;28;20053;-67
2022/05/29 06:24:39;;;;;;;;;;;11.20;99.90;;;;;;5092869;28;19916;-67
2022/05/29 06:27:05;;;;;;;;;;;11.20;99.90;;;;;;5092669;28;20416;-68
2022/05/29 06:29:30;;;;;;;;;;;11.30;99.90;;;;;;5091116;28;19916;-68
2022/05/29 06:32:03;;;;;;;;;;;11.30;99.90;;;;;;5091952;28;19926;-67
2022/05/29 06:34:29;;;;;;;;;;;11.30;99.90;;;;;;5092615;28;19920;-68
2022/05/29 06:36:55;;;;;;;;;;;11.30;99.90;;;;;;5092565;28;20368;-67
2022/05/29 06:39:22;;;;;;;;;;;11.40;99.90;;;;;;5092191;28;19980;-67
2022/05/29 06:41:48;;;;;;;;;;;11.40;99.90;;;;;;5092605;28;20304;-67
2022/05/29 06:44:13;;;;;;;;;;;11.40;99.90;;;;;;5092579;28;19923;-67
2022/05/29 06:46:39;;;;;;;;;;;11.40;99.90;;;;;;5092570;28;19916;-67
2022/05/29 06:49:04;;;;;;;;;;;11.40;99.90;;;;;;5090799;28;19923;-67
2022/05/29 06:51:30;;;;;;;;;;;11.30;99.90;;;;;;5092265;28;19916;-67
2022/05/29 06:53:56;;;;;;;;;;;11.40;99.90;;;;;;5092058;28;19971;-67
2022/05/29 06:56:22;;;;;;;;;;;11.30;99.90;;;;;;5092136;28;20066;-67
2022/05/29 06:58:48;;;;;;;;;;;11.20;99.90;;;;;;5091939;28;20351;-67
2022/05/29 07:07:01;;;;;;;;;;;11.20;99.90;;;;;;5091929;28;20380;-67
2022/05/29 07:09:36;;;;;;;;;;;11.10;99.90;;;;;;5091923;28;19920;-67
2022/05/29 07:12:13;;;;;;;;;;;11.10;99.90;;;;;;5091869;28;20459;-67
2022/05/29 07:14:50;;;;;;;;;;;11.10;99.90;;;;;;5091893;28;19919;-67
2022/05/29 07:17:18;;;;;;;;;;;11.10;99.90;;;;;;5092081;28;19916;-67
2022/05/29 07:19:44;;;;;;;;;;;11.10;99.90;;;;;;5091580;28;19920;-67
2022/05/29 07:22:11;;;;;;;;;;;11.20;99.90;;;;;;5091809;28;19969;-67
2022/05/29 07:24:38;;;;;;;;;;;11.20;99.90;;;;;;5091820;28;19920;-67
2022/05/29 07:27:04;;;;;;;;;;;11.30;99.90;;;;;;5091908;28;19938;-67
2022/05/29 07:29:30;;;;;;;;;;;11.30;99.90;;;;;;5091688;28;19917;-68
2022/05/29 07:31:55;;;;;;;;;;;11.30;99.90;;;;;;5091850;28;19916;-67
2022/05/29 07:34:21;;;;;;;;;;;11.40;99.90;;;;;;5090450;28;19927;-67
2022/05/29 07:36:49;;;;;;;;;;;11.30;99.90;;;;;;5091683;28;20304;-67
2022/05/29 07:39:15;;;;;;;;;;;11.40;99.90;;;;;;5091427;28;19927;-67
2022/05/29 07:44:25;;;;;;;;;;;11.40;99.90;;;;;;5091535;28;19915;-67
2022/05/29 07:46:50;;;;;;;;;;;11.40;99.90;;;;;;5091643;28;19916;-67
2022/05/29 07:49:16;;;;;;;;;;;11.40;99.90;;;;;;5091165;28;19920;-68
2022/05/29 07:51:41;;;;;;;;;;;11.40;99.90;;;;;;5091401;28;20399;-67
2022/05/29 07:54:07;;;;;;;;;;;11.40;99.90;;;;;;5090011;28;19920;-67
2022/05/29 07:56:32;;;;;;;;;;;11.40;99.90;;;;;;5091224;28;19958;-67
2022/05/29 07:58:58;;;;;;;;;;;11.40;99.90;;;;;;5091078;28;19916;-68
2022/05/29 08:01:23;;;;;;;;;;;11.50;99.90;;;;;;5091379;28;20006;-67
2022/05/29 08:03:49;;;;;;;;;;;11.60;99.90;;;;;;5091323;28;19923;-67
2022/05/29 08:06:14;;;;;;;;;;;11.70;99.90;;;;;;5091191;28;19916;-67
2022/05/29 08:08:40;;;;;;;;;;;11.70;99.90;;;;;;5089664;28;20395;-68
2022/05/29 08:11:06;;;;;;;;;;;11.80;99.90;;;;;;5090291;28;19916;-67
2022/05/29 08:13:33;;;;;;;;;;;11.90;99.90;;;;;;5091339;28;19980;-67
2022/05/29 08:15:59;;;;;;;;;;;11.90;99.90;;;;;;5091316;28;19977;-67
2022/05/29 08:18:25;;;;;;;;;;;11.90;99.90;;;;;;5091001;28;20320;-68
2022/05/29 08:20:52;;;;;;;;;;;12.00;99.90;;;;;;5091095;28;19927;-67
2022/05/29 08:23:18;;;;;;;;;;;12.00;99.90;;;;;;5091197;28;19920;-67
2022/05/29 08:30:37;;;;;;;;;;;12.20;99.90;;;;;;5090796;28;20376;-67
2022/05/29 08:31:28;;;;;;;;;;;12.30;99.90;;;;;;5090798;28;19923;-67
2022/05/29 08:33:54;;;;;;;;;;;12.30;99.90;;;;;;5090943;28;20524;-68
2022/05/29 08:36:24;;;;;;;;;;;12.10;99.90;;;;;;5090800;28;19960;-67
2022/05/29 08:38:52;;;;;;;;;;;12.20;99.90;;;;;;5090815;28;20006;-67
2022/05/29 08:41:23;;;;;;;;;;;12.10;99.90;;;;;;5090924;28;19928;-67
2022/05/29 08:44:03;;;;;;;;;;;12.10;99.90;;;;;;5090876;28;20014;-68
2022/05/29 08:46:32;;;;;;;;;;;12.10;99.90;;;;;;5090833;28;20252;-67
2022/05/29 08:48:57;;;;;;;;;;;12.20;99.90;;;;;;5090848;28;19927;-68
2022/05/29 08:51:30;;;;;;;;;;;12.20;99.90;;;;;;5091032;28;19916;-67
2022/05/29 08:54:05;;;;;;;;;;;12.20;99.90;;;;;;5090938;28;20307;-67
2022/05/29 08:56:35;;;;;;;;;;;12.00;99.90;;;;;;5093146;28;20372;-67
2022/05/29 08:59:20;;;;;;;;;;;12.00;99.90;;;;;;5094028;28;20331;-68
2022/05/29 09:02:04;;;;;;;;;;;12.10;99.90;;;;;;5094464;28;19969;-67
2022/05/29 09:04:34;;;;;;;;;;;12.10;99.90;;;;;;5094270;28;19920;-67
2022/05/29 09:07:02;;;;;;;;;;;12.00;99.90;;;;;;5094367;28;19923;-67
2022/05/29 09:09:30;;;;;;;;;;;12.10;99.90;;;;;;5093987;28;19920;-67
2022/05/29 09:11:58;;;;;;;;;;;12.10;99.90;;;;;;5093104;28;20006;-67
2022/05/29 09:14:30;;;;;;;;;;;12.20;99.90;;;;;;5094362;28;19916;-67
2022/05/29 09:17:02;;;;;;;;;;;12.10;99.90;;;;;;5094212;28;19923;-67
2022/05/29 09:19:31;;;;;;;;;;;12.20;99.90;;;;;;5093669;28;19927;-67
2022/05/29 09:22:00;;;;;;;;;;;12.30;99.90;;;;;;5093857;28;19927;-67
2022/05/29 09:24:44;;;;;;;;;;;12.40;99.90;;;;;;5094116;28;19916;-67
2022/05/29 09:27:10;;;;;;;;;;;12.40;99.90;;;;;;5094043;28;19915;-67
2022/05/29 09:29:36;;;;;;;;;;;12.40;99.90;;;;;;5093690;28;20062;-68
2022/05/29 09:32:04;;;;;;;;;;;12.40;99.90;;;;;;5093779;28;20423;-68
2022/05/29 09:34:29;;;;;;;;;;;12.40;99.90;;;;;;5093697;28;19998;-68
2022/05/29 09:36:58;;;;;;;;;;;12.50;99.90;;;;;;5093991;28;19922;-67
2022/05/29 09:39:28;;;;;;;;;;;12.30;99.90;;;;;;5093533;28;20406;-67
2022/05/29 09:42:09;;;;;;;;;;;12.40;99.90;;;;;;5092435;28;19986;-68
2022/05/29 09:44:34;;;;;;;;;;;12.20;99.90;;;;;;5093706;28;19916;-67
2022/05/29 09:50:02;;;;;;;;;;;12.40;99.90;;;;;;5093394;28;19915;-67
2022/05/29 09:52:30;;;;;;;;;;;12.20;99.90;;;;;;5094075;28;19925;-67
2022/05/29 09:55:14;;;;;;;;;;;12.20;99.90;;;;;;5093442;28;19916;-67
2022/05/29 09:57:42;;;;;;;;;;;12.20;99.90;;;;;;5093512;28;19916;-68
2022/05/29 10:00:26;;;;;;;;;;;12.30;99.90;;;;;;5092790;28;19924;-68
2022/05/29 10:02:52;;;;;;;;;;;12.50;99.90;;;;;;5093393;28;19927;-67
2022/05/29 10:05:23;;;;;;;;;;;12.70;99.90;;;;;;5093259;28;20256;-68
2022/05/29 10:07:49;;;;;;;;;;;12.70;99.90;;;;;;5091969;28;19923;-67
2022/05/29 10:10:28;;;;;;;;;;;12.90;99.90;;;;;;5092707;28;20299;-67
2022/05/29 10:12:55;;;;;;;;;;;13.00;99.90;;;;;;5093298;28;20292;-68
2022/05/29 10:15:26;;;;;;;;;;;12.90;99.90;;;;;;5093076;28;19923;-67
2022/05/29 10:17:56;;;;;;;;;;;13.10;99.90;;;;;;5092892;28;20372;-68
2022/05/29 10:20:29;;;;;;;;;;;13.00;99.90;;;;;;5092430;28;19981;-68
2022/05/29 10:22:55;;;;;;;;;;;12.90;99.90;;;;;;5093099;28;19916;-68
2022/05/29 10:25:29;;;;;;;;;;;12.80;99.90;;;;;;5092958;28;19915;-68
2022/05/29 10:27:57;;;;;;;;;;;12.70;99.90;;;;;;5091632;28;19963;-68
2022/05/29 10:30:27;;;;;;;;;;;12.70;99.90;;;;;;5092364;28;19919;-68
2022/05/29 10:32:59;;;;;;;;;;;12.60;99.90;;;;;;5092581;28;19924;-68
2022/05/29 10:35:26;;;;;;;;;;;12.60;99.90;;;;;;5092797;28;19923;-68
2022/05/29 10:37:53;;;;;;;;;;;12.60;99.90;;;;;;5092685;28;19920;-68
2022/05/29 10:40:21;;;;;;;;;;;12.60;99.90;;;;;;5092213;28;19920;-68
2022/05/29 10:42:49;;;;;;;;;;;12.60;99.90;;;;;;5092520;28;19973;-68
2022/05/29 10:45:22;;;;;;;;;;;12.60;99.90;;;;;;5092268;28;19959;-68
2022/05/29 10:47:56;;;;;;;;;;;12.80;99.90;;;;;;5092558;28;19930;-68
2022/05/29 10:50:27;;;;;;;;;;;12.70;99.90;;;;;;5092223;28;20295;-68
2022/05/29 10:53:04;;;;;;;;;;;12.60;99.90;;;;;;5092389;28;19915;-68
2022/05/29 10:55:36;;;;;;;;;;;12.60;99.90;;;;;;5092361;28;19926;-68
2022/05/29 10:58:08;;;;;;;;;;;12.30;99.90;;;;;;5092328;28;20007;-68
2022/05/29 11:00:37;;;;;;;;;;;12.20;99.90;;;;;;5091720;28;20002;-68
2022/05/29 11:03:28;;;;;;;;;;;12.20;99.90;;;;;;5092241;28;19927;-68
2022/05/29 11:06:03;;;;;;;;;;;12.20;99.90;;;;;;5009602;28;19917;-67
2022/05/29 11:08:35;;;;;;;;;;;12.30;99.90;;;;;;5009448;28;19917;-68
2022/05/29 11:11:06;;;;;;;;;;;12.30;99.90;;;;;;5009588;28;19917;-68
2022/05/29 11:13:37;;;;;;;;;;;12.40;99.90;;;;;;5009631;28;19920;-68
2022/05/29 11:16:13;;;;;;;;;;;12.50;99.90;;;;;;5009465;28;19921;-68
2022/05/29 11:18:38;;;;;;;;;;;12.50;99.90;;;;;;4992457;28;19917;-68
2022/05/29 11:21:36;;;;;;;;;;;12.60;99.90;;;;;;5009374;28;19936;-68
2022/05/29 11:24:10;;;;;;;;;;;12.60;99.90;;;;;;4977347;28;19921;-68
2022/05/29 11:26:43;;;;;;;;;;;12.80;99.90;;;;;;5009484;28;19943;-68
2022/05/29 11:29:18;;;;;;;;;;;13.00;99.90;;;;;;5008990;28;19917;-68
2022/05/29 11:31:47;;;;;;;;;;;13.00;99.90;;;;;;4992927;28;19917;-68
2022/05/29 11:34:18;;;;;;;;;;;13.00;99.90;;;;;;4993152;28;19923;-68
2022/05/29 11:36:48;;;;;;;;;;;13.00;99.90;;;;;;5009287;28;19918;-68
2022/05/29 11:39:25;;;;;;;;;;;13.10;99.90;;;;;;5008925;28;19917;-68
2022/05/29 11:41:55;;;;;;;;;;;12.90;99.90;;;;;;5021062;28;20018;-68
2022/05/29 11:44:27;;;;;;;;;;;12.80;99.90;;;;;;5091661;28;19970;-68
2022/05/29 11:52:49;;;;;;;;;;;12.60;99.90;;;;;;5091510;28;19916;-68
2022/05/29 11:55:17;;;;;;;;;;;12.50;99.90;;;;;;5091399;28;19968;-68
2022/05/29 11:57:51;;;;;;;;;;;12.60;99.90;;;;;;5091201;28;20400;-68
2022/05/29 12:00:35;;;;;;;;;;;12.60;99.90;;;;;;5090589;28;19928;-68
2022/05/29 12:03:09;;;;;;;;;;;12.70;99.90;;;;;;5091469;28;19985;-68
2022/05/29 12:05:51;;;;;;;;;;;12.70;99.90;;;;;;5091275;28;19916;-68
2022/05/29 12:08:37;;;;;;;;;;;12.80;99.90;;;;;;5091127;28;19924;-68
2022/05/29 12:11:22;;;;;;;;;;;12.90;99.90;;;;;;5090424;28;19923;-68
2022/05/29 12:13:59;;;;;;;;;;;12.90;99.90;;;;;;5091300;28;19978;-68
2022/05/29 12:16:27;;;;;;;;;;;13.00;99.90;;;;;;5091108;28;19916;-68
2022/05/29 12:18:54;;;;;;;;;;;13.30;99.90;;;;;;5090828;28;19916;-68
2022/05/29 12:21:28;;;;;;;;;;;13.30;99.90;;;;;;5090861;28;19920;-68
2022/05/29 12:23:55;;;;;;;;;;;13.30;99.90;;;;;;5091308;28;19938;-68
2022/05/29 12:26:24;;;;;;;;;;;13.30;99.90;;;;;;5091194;28;19916;-68
2022/05/29 12:29:00;;;;;;;;;;;13.30;99.90;;;;;;5090902;28;19916;-68
2022/05/29 12:31:33;;;;;;;;;;;13.30;99.90;;;;;;5093421;28;19915;-68
2022/05/29 12:33:59;;;;;;;;;;;13.10;99.90;;;;;;5094955;28;19969;-68
2022/05/29 12:36:39;;;;;;;;;;;12.80;99.90;;;;;;5095026;28;20022;-68
2022/05/29 12:39:23;;;;;;;;;;;12.70;99.90;;;;;;5094577;28;20384;-68
2022/05/29 12:42:01;;;;;;;;;;;12.60;99.90;;;;;;5094690;28;19962;-68
2022/05/29 12:44:32;;;;;;;;;;;12.50;99.90;;;;;;5094930;28;19916;-68
2022/05/29 12:47:09;;;;;;;;;;;12.40;99.90;;;;;;5094869;28;19920;-68
2022/05/29 12:49:37;;;;;;;;;;;12.40;99.90;;;;;;5094336;28;20372;-68
2022/05/29 12:52:12;;;;;;;;;;;12.40;99.90;;;;;;5094706;28;19916;-68
2022/05/29 12:54:45;;;;;;;;;;;12.70;99.90;;;;;;5094542;28;19920;-68
2022/05/29 12:57:18;;;;;;;;;;;12.60;99.90;;;;;;5094695;28;19923;-68
2022/05/29 12:59:53;;;;;;;;;;;12.60;99.90;;;;;;5094207;28;19920;-68
2022/05/29 13:02:27;;;;;;;;;;;12.80;99.90;;;;;;5094510;28;19916;-68
2022/05/29 13:05:22;;;;;;;;;;;12.90;99.90;;;;;;5094246;28;20347;-68
2022/05/29 13:07:55;;;;;;;;;;;13.10;99.90;;;;;;5076859;28;19973;-68
2022/05/29 13:10:25;;;;;;;;;;;13.00;99.90;;;;;;5094044;28;20381;-67
2022/05/29 13:13:13;;;;;;;;;;;13.20;99.90;;;;;;5094356;28;19938;-68
2022/05/29 13:15:40;;;;;;;;;;;13.30;99.90;;;;;;5092927;28;19920;-67
2022/05/29 13:18:09;;;;;;;;;;;13.40;99.90;;;;;;5094262;28;19916;-68
2022/05/29 13:20:53;;;;;;;;;;;13.30;99.90;;;;;;5093721;28;19934;-68
2022/05/29 13:23:30;;;;;;;;;;;13.30;99.90;;;;;;5093991;28;19922;-67
2022/05/29 13:25:57;;;;;;;;;;;13.20;99.90;;;;;;5093988;28;19916;-68
2022/05/29 13:28:31;;;;;;;;;;;13.30;99.90;;;;;;5093997;28;20323;-68
2022/05/29 13:31:07;;;;;;;;;;;13.30;99.90;;;;;;5093890;28;19924;-68
2022/05/29 13:33:32;;;;;;;;;;;13.20;99.90;;;;;;5093840;28;19919;-68
2022/05/29 13:35:58;;;;;;;;;;;13.30;99.90;;;;;;5093706;28;19923;-67
2022/05/29 13:38:42;;;;;;;;;;;13.20;99.90;;;;;;5093523;28;19965;-68
2022/05/29 13:41:10;;;;;;;;;;;13.20;99.90;;;;;;5093298;28;19965;-68
2022/05/29 13:43:36;;;;;;;;;;;13.30;99.90;;;;;;5093766;28;19961;-68
2022/05/29 13:46:07;;;;;;;;;;;13.30;99.90;;;;;;5093676;28;20029;-68
2022/05/29 13:48:53;;;;;;;;;;;13.20;99.90;;;;;;5093193;28;20360;-68
2022/05/29 13:51:25;;;;;;;;;;;13.20;99.90;;;;;;5093325;28;19916;-67
2022/05/29 13:54:02;;;;;;;;;;;13.20;99.90;;;;;;5093607;28;19959;-68
2022/05/29 13:56:46;;;;;;;;;;;13.20;99.90;;;;;;5093461;28;19927;-68
2022/05/29 14:04:49;;;;;;;;;;;13.00;99.90;;;;;;5093276;28;19916;-68
2022/05/29 14:07:17;;;;;;;;;;;13.10;99.90;;;;;;5093192;28;19916;-68
2022/05/29 14:10:01;;;;;;;;;;;13.00;99.90;;;;;;5092818;28;19915;-68
2022/05/29 14:12:36;;;;;;;;;;;12.90;99.90;;;;;;5093220;28;20027;-68
2022/05/29 14:15:20;;;;;;;;;;;13.00;99.90;;;;;;5093150;28;19920;-68
2022/05/29 14:17:46;;;;;;;;;;;12.90;99.90;;;;;;5092893;28;20441;-68
2022/05/29 14:20:11;;;;;;;;;;;13.00;99.90;;;;;;5092689;28;19974;-68
2022/05/29 14:22:46;;;;;;;;;;;13.20;99.90;;;;;;5093086;28;19924;-68
2022/05/29 14:25:29;;;;;;;;;;;13.00;99.90;;;;;;5092959;28;19916;-68
2022/05/29 14:28:04;;;;;;;;;;;13.00;99.90;;;;;;5093008;28;19916;-68
2022/05/29 14:30:45;;;;;;;;;;;12.90;99.90;;;;;;5092408;28;20014;-68
2022/05/29 14:33:20;;;;;;;;;;;13.00;99.90;;;;;;5092805;28;19998;-68
2022/05/29 14:35:45;;;;;;;;;;;12.80;99.90;;;;;;5092563;28;20555;-68
2022/05/29 14:38:11;;;;;;;;;;;12.80;99.90;;;;;;5091248;28;19920;-68
2022/05/29 14:40:41;;;;;;;;;;;12.80;99.90;;;;;;5092078;28;19935;-68
2022/05/29 14:43:13;;;;;;;;;;;12.80;99.90;;;;;;5092699;28;19916;-68
2022/05/29 14:45:41;;;;;;;;;;;12.90;99.90;;;;;;5092651;28;19916;-68
2022/05/29 14:48:06;;;;;;;;;;;12.80;99.90;;;;;;5092515;28;20247;-68
2022/05/29 14:50:33;;;;;;;;;;;13.00;99.90;;;;;;5091953;28;19927;-68
2022/05/29 14:53:22;;;;;;;;;;;12.90;99.90;;;;;;5091558;28;19916;-68
2022/05/29 14:55:48;;;;;;;;;;;12.90;99.90;;;;;;5092590;28;19916;-68
2022/05/29 14:58:32;;;;;;;;;;;12.90;99.90;;;;;;5091057;28;19923;-68
2022/05/29 15:01:01;;;;;;;;;;;12.90;99.90;;;;;;5091903;28;19994;-68
2022/05/29 15:03:29;;;;;;;;;;;12.90;99.90;;;;;;5092097;28;20347;-68
2022/05/29 15:05:56;;;;;;;;;;;13.00;99.90;;;;;;5092215;28;19922;-68